Reeds Cross Roads, North Carolina
Current Conditions -  °F | °C
As of 9:35 AM on Friday 28 Nov 2014 (Local Time) from KEXX Reporting Station
Clear Clear  
Wind Chill: 34°   Ceiling: Unl
Heat Index: 34°   Visibility: 10mi
Dew Point: 19°   Wind: 0mph
Humidity: 53%   Direction: NA
Pressure: 30.38"   Gusts: NA
Location:  35.7974°N, 80.2541°W
Report Text: KEXX 281435Z AUTO 00000KT 10SM CLR 01/M07 A3038 RMK AO2 T00131074
Loading
Personal Weather Stations






























Interactive Weather Map New forecast layout! Learn more

10-Day Weather Forecast

Advertisements
Track Severe Weather on mobile